sensor_id;sensor_type;location;lat;lon;timestamp;P1;durP1;ratioP1;P2;durP2;ratioP2
54307;SDS011;40208;39.778;2.710;2023-05-10T00:01:27;5.70;;;2.20;;
54307;SDS011;40208;39.778;2.710;2023-05-10T00:04:16;5.47;;;1.80;;
54307;SDS011;40208;39.778;2.710;2023-05-10T00:07:07;3.88;;;2.15;;
54307;SDS011;40208;39.778;2.710;2023-05-10T00:09:54;8.55;;;2.38;;
54307;SDS011;40208;39.778;2.710;2023-05-10T00:12:41;2.53;;;1.67;;
54307;SDS011;40208;39.778;2.710;2023-05-10T00:15:32;4.43;;;1.70;;
54307;SDS011;40208;39.778;2.710;2023-05-10T00:18:25;4.88;;;2.10;;
54307;SDS011;40208;39.778;2.710;2023-05-10T00:21:16;6.72;;;1.98;;
54307;SDS011;40208;39.778;2.710;2023-05-10T00:24:06;7.28;;;1.98;;
54307;SDS011;40208;39.778;2.710;2023-05-10T00:26:55;5.95;;;1.88;;
54307;SDS011;40208;39.778;2.710;2023-05-10T00:29:42;4.22;;;1.50;;
54307;SDS011;40208;39.778;2.710;2023-05-10T00:32:31;2.90;;;1.13;;
54307;SDS011;40208;39.778;2.710;2023-05-10T00:35:23;8.15;;;1.80;;
54307;SDS011;40208;39.778;2.710;2023-05-10T00:38:20;2.15;;;1.30;;
54307;SDS011;40208;39.778;2.710;2023-05-10T00:41:36;4.20;;;1.10;;
54307;SDS011;40208;39.778;2.710;2023-05-10T00:44:22;3.50;;;1.00;;
54307;SDS011;40208;39.778;2.710;2023-05-10T00:47:11;5.22;;;1.65;;
54307;SDS011;40208;39.778;2.710;2023-05-10T00:50:00;7.65;;;1.20;;
54307;SDS011;40208;39.778;2.710;2023-05-10T00:52:53;5.18;;;1.20;;
54307;SDS011;40208;39.778;2.710;2023-05-10T00:55:41;2.72;;;0.95;;
54307;SDS011;40208;39.778;2.710;2023-05-10T00:58:27;8.85;;;1.20;;
54307;SDS011;40208;39.778;2.710;2023-05-10T01:01:12;5.68;;;1.50;;
54307;SDS011;40208;39.778;2.710;2023-05-10T01:04:03;4.68;;;0.93;;
54307;SDS011;40208;39.778;2.710;2023-05-10T01:06:48;3.63;;;0.75;;
54307;SDS011;40208;39.778;2.710;2023-05-10T01:09:37;5.10;;;0.65;;
54307;SDS011;40208;39.778;2.710;2023-05-10T01:12:28;2.33;;;0.63;;
54307;SDS011;40208;39.778;2.710;2023-05-10T01:15:15;5.55;;;0.85;;
54307;SDS011;40208;39.778;2.710;2023-05-10T01:21:31;5.78;;;0.90;;
54307;SDS011;40208;39.778;2.710;2023-05-10T01:27:48;3.10;;;0.65;;
54307;SDS011;40208;39.778;2.710;2023-05-10T01:36:48;1.20;;;0.53;;
54307;SDS011;40208;39.778;2.710;2023-05-10T01:43:21;1.95;;;0.40;;
54307;SDS011;40208;39.778;2.710;2023-05-10T01:46:14;1.48;;;0.50;;
54307;SDS011;40208;39.778;2.710;2023-05-10T01:49:08;3.50;;;0.68;;
54307;SDS011;40208;39.778;2.710;2023-05-10T01:51:59;1.90;;;0.50;;
54307;SDS011;40208;39.778;2.710;2023-05-10T01:54:55;3.55;;;0.68;;
54307;SDS011;40208;39.778;2.710;2023-05-10T01:57:50;2.17;;;0.65;;
54307;SDS011;40208;39.778;2.710;2023-05-10T02:00:47;1.80;;;0.40;;
54307;SDS011;40208;39.778;2.710;2023-05-10T02:03:41;4.03;;;0.50;;
54307;SDS011;40208;39.778;2.710;2023-05-10T02:06:28;2.58;;;0.60;;
54307;SDS011;40208;39.778;2.710;2023-05-10T02:09:16;2.80;;;0.57;;
54307;SDS011;40208;39.778;2.710;2023-05-10T02:12:04;1.75;;;0.60;;
54307;SDS011;40208;39.778;2.710;2023-05-10T02:14:53;3.10;;;0.77;;
54307;SDS011;40208;39.778;2.710;2023-05-10T02:17:45;2.33;;;0.57;;
54307;SDS011;40208;39.778;2.710;2023-05-10T02:20:36;4.10;;;0.50;;
54307;SDS011;40208;39.778;2.710;2023-05-10T02:23:24;4.20;;;0.50;;
54307;SDS011;40208;39.778;2.710;2023-05-10T02:26:12;1.33;;;0.50;;
54307;SDS011;40208;39.778;2.710;2023-05-10T02:29:04;2.67;;;0.47;;
54307;SDS011;40208;39.778;2.710;2023-05-10T02:31:56;1.30;;;0.40;;
54307;SDS011;40208;39.778;2.710;2023-05-10T02:34:45;1.83;;;0.50;;
54307;SDS011;40208;39.778;2.710;2023-05-10T02:37:38;2.15;;;0.50;;
54307;SDS011;40208;39.778;2.710;2023-05-10T02:40:24;1.55;;;0.43;;
54307;SDS011;40208;39.778;2.710;2023-05-10T02:43:12;1.85;;;0.57;;
54307;SDS011;40208;39.778;2.710;2023-05-10T02:46:00;1.38;;;0.63;;
54307;SDS011;40208;39.778;2.710;2023-05-10T02:48:46;2.67;;;0.68;;
54307;SDS011;40208;39.778;2.710;2023-05-10T02:51:46;3.63;;;0.45;;
54307;SDS011;40208;39.778;2.710;2023-05-10T02:54:41;1.70;;;0.40;;
54307;SDS011;40208;39.778;2.710;2023-05-10T02:57:32;1.45;;;0.50;;
54307;SDS011;40208;39.778;2.710;2023-05-10T03:00:20;1.88;;;0.40;;
54307;SDS011;40208;39.778;2.710;2023-05-10T03:03:11;3.65;;;0.60;;
54307;SDS011;40208;39.778;2.710;2023-05-10T03:05:55;5.10;;;0.70;;
54307;SDS011;40208;39.778;2.710;2023-05-10T03:08:43;2.70;;;0.70;;
54307;SDS011;40208;39.778;2.710;2023-05-10T03:14:53;2.88;;;0.40;;
54307;SDS011;40208;39.778;2.710;2023-05-10T03:20:50;0.40;;;0.40;;
54307;SDS011;40208;39.778;2.710;2023-05-10T03:23:45;5.32;;;0.70;;
54307;SDS011;40208;39.778;2.710;2023-05-10T03:26:52;2.60;;;0.50;;
54307;SDS011;40208;39.778;2.710;2023-05-10T03:29:43;2.40;;;0.47;;
54307;SDS011;40208;39.778;2.710;2023-05-10T03:32:34;2.67;;;0.68;;
54307;SDS011;40208;39.778;2.710;2023-05-10T03:35:29;4.28;;;0.52;;
54307;SDS011;40208;39.778;2.710;2023-05-10T03:38:14;2.30;;;0.93;;
54307;SDS011;40208;39.778;2.710;2023-05-10T03:41:05;0.55;;;0.40;;
54307;SDS011;40208;39.778;2.710;2023-05-10T03:43:50;3.05;;;0.40;;
54307;SDS011;40208;39.778;2.710;2023-05-10T03:46:35;3.80;;;0.82;;
54307;SDS011;40208;39.778;2.710;2023-05-10T03:49:20;2.67;;;0.50;;
54307;SDS011;40208;39.778;2.710;2023-05-10T03:52:05;3.83;;;0.40;;
54307;SDS011;40208;39.778;2.710;2023-05-10T03:54:50;3.70;;;0.68;;
54307;SDS011;40208;39.778;2.710;2023-05-10T03:57:37;2.65;;;0.50;;
54307;SDS011;40208;39.778;2.710;2023-05-10T04:00:22;1.23;;;0.30;;
54307;SDS011;40208;39.778;2.710;2023-05-10T04:03:07;1.38;;;0.50;;
54307;SDS011;40208;39.778;2.710;2023-05-10T04:05:59;4.85;;;0.50;;
54307;SDS011;40208;39.778;2.710;2023-05-10T04:08:45;1.38;;;0.38;;
54307;SDS011;40208;39.778;2.710;2023-05-10T04:11:30;2.22;;;0.52;;
54307;SDS011;40208;39.778;2.710;2023-05-10T04:14:15;0.45;;;0.40;;
54307;SDS011;40208;39.778;2.710;2023-05-10T04:17:04;2.67;;;0.47;;
54307;SDS011;40208;39.778;2.710;2023-05-10T04:19:49;1.70;;;0.50;;
54307;SDS011;40208;39.778;2.710;2023-05-10T04:22:40;3.05;;;0.50;;
54307;SDS011;40208;39.778;2.710;2023-05-10T04:25:27;3.00;;;0.60;;
54307;SDS011;40208;39.778;2.710;2023-05-10T04:28:14;1.20;;;0.50;;
54307;SDS011;40208;39.778;2.710;2023-05-10T04:31:03;2.13;;;0.90;;
54307;SDS011;40208;39.778;2.710;2023-05-10T04:33:48;2.78;;;0.30;;
54307;SDS011;40208;39.778;2.710;2023-05-10T04:36:37;2.05;;;0.82;;
54307;SDS011;40208;39.778;2.710;2023-05-10T04:39:30;4.15;;;0.55;;
54307;SDS011;40208;39.778;2.710;2023-05-10T04:42:15;2.75;;;0.47;;
54307;SDS011;40208;39.778;2.710;2023-05-10T04:45:02;3.10;;;0.57;;
54307;SDS011;40208;39.778;2.710;2023-05-10T04:47:49;2.97;;;0.60;;
54307;SDS011;40208;39.778;2.710;2023-05-10T04:50:34;3.35;;;0.60;;
54307;SDS011;40208;39.778;2.710;2023-05-10T04:53:27;2.75;;;0.60;;
54307;SDS011;40208;39.778;2.710;2023-05-10T04:56:11;2.92;;;0.70;;
54307;SDS011;40208;39.778;2.710;2023-05-10T04:58:58;2.20;;;0.57;;
54307;SDS011;40208;39.778;2.710;2023-05-10T05:01:45;0.95;;;0.50;;
54307;SDS011;40208;39.778;2.710;2023-05-10T05:04:36;2.38;;;0.55;;
54307;SDS011;40208;39.778;2.710;2023-05-10T05:07:22;2.10;;;0.50;;
54307;SDS011;40208;39.778;2.710;2023-05-10T05:10:08;1.83;;;0.85;;
54307;SDS011;40208;39.778;2.710;2023-05-10T05:12:53;2.50;;;0.90;;
54307;SDS011;40208;39.778;2.710;2023-05-10T05:15:42;1.67;;;0.60;;
54307;SDS011;40208;39.778;2.710;2023-05-10T05:18:31;1.63;;;0.50;;
54307;SDS011;40208;39.778;2.710;2023-05-10T05:21:18;1.85;;;0.52;;
54307;SDS011;40208;39.778;2.710;2023-05-10T05:24:06;5.32;;;0.60;;
54307;SDS011;40208;39.778;2.710;2023-05-10T05:26:51;3.67;;;0.60;;
54307;SDS011;40208;39.778;2.710;2023-05-10T05:29:38;1.80;;;0.65;;
54307;SDS011;40208;39.778;2.710;2023-05-10T05:32:25;2.92;;;0.70;;
54307;SDS011;40208;39.778;2.710;2023-05-10T05:35:12;2.78;;;0.68;;
54307;SDS011;40208;39.778;2.710;2023-05-10T05:37:59;2.45;;;0.50;;
54307;SDS011;40208;39.778;2.710;2023-05-10T05:40:44;1.63;;;0.50;;
54307;SDS011;40208;39.778;2.710;2023-05-10T05:43:30;2.50;;;0.70;;
54307;SDS011;40208;39.778;2.710;2023-05-10T05:46:14;3.60;;;0.77;;
54307;SDS011;40208;39.778;2.710;2023-05-10T05:49:07;2.05;;;0.57;;
54307;SDS011;40208;39.778;2.710;2023-05-10T05:51:54;1.52;;;0.50;;
54307;SDS011;40208;39.778;2.710;2023-05-10T05:54:44;9.65;;;1.10;;
54307;SDS011;40208;39.778;2.710;2023-05-10T05:57:31;4.38;;;1.08;;
54307;SDS011;40208;39.778;2.710;2023-05-10T06:00:16;1.90;;;0.70;;
54307;SDS011;40208;39.778;2.710;2023-05-10T06:03:01;1.23;;;0.65;;
54307;SDS011;40208;39.778;2.710;2023-05-10T06:05:50;5.65;;;1.00;;
54307;SDS011;40208;39.778;2.710;2023-05-10T06:08:39;3.10;;;0.90;;
54307;SDS011;40208;39.778;2.710;2023-05-10T06:11:24;1.05;;;0.57;;
54307;SDS011;40208;39.778;2.710;2023-05-10T06:14:10;4.28;;;0.90;;
54307;SDS011;40208;39.778;2.710;2023-05-10T06:16:55;0.68;;;0.47;;
54307;SDS011;40208;39.778;2.710;2023-05-10T06:19:43;5.15;;;0.70;;
54307;SDS011;40208;39.778;2.710;2023-05-10T06:22:28;2.13;;;0.80;;
54307;SDS011;40208;39.778;2.710;2023-05-10T06:25:15;1.83;;;0.70;;
54307;SDS011;40208;39.778;2.710;2023-05-10T06:28:02;4.20;;;0.90;;
54307;SDS011;40208;39.778;2.710;2023-05-10T06:30:49;1.13;;;0.50;;
54307;SDS011;40208;39.778;2.710;2023-05-10T06:33:34;3.22;;;0.60;;
54307;SDS011;40208;39.778;2.710;2023-05-10T06:36:20;1.48;;;0.40;;
54307;SDS011;40208;39.778;2.710;2023-05-10T06:39:12;3.17;;;0.60;;
54307;SDS011;40208;39.778;2.710;2023-05-10T06:41:59;4.53;;;1.37;;
54307;SDS011;40208;39.778;2.710;2023-05-10T06:44:48;1.92;;;0.70;;
54307;SDS011;40208;39.778;2.710;2023-05-10T06:47:33;2.50;;;0.80;;
54307;SDS011;40208;39.778;2.710;2023-05-10T06:50:20;5.32;;;0.88;;
54307;SDS011;40208;39.778;2.710;2023-05-10T06:53:07;2.90;;;0.85;;
54307;SDS011;40208;39.778;2.710;2023-05-10T06:56:01;10.05;;;4.13;;
54307;SDS011;40208;39.778;2.710;2023-05-10T06:58:51;30.75;;;10.90;;
54307;SDS011;40208;39.778;2.710;2023-05-10T07:01:36;29.98;;;11.15;;
54307;SDS011;40208;39.778;2.710;2023-05-10T07:04:23;13.73;;;5.10;;
54307;SDS011;40208;39.778;2.710;2023-05-10T07:07:12;7.75;;;2.15;;
54307;SDS011;40208;39.778;2.710;2023-05-10T07:09:58;3.08;;;1.00;;
54307;SDS011;40208;39.778;2.710;2023-05-10T07:12:44;4.28;;;1.30;;
54307;SDS011;40208;39.778;2.710;2023-05-10T07:15:35;4.82;;;2.55;;
54307;SDS011;40208;39.778;2.710;2023-05-10T07:18:20;11.35;;;2.45;;
54307;SDS011;40208;39.778;2.710;2023-05-10T07:21:05;7.28;;;2.30;;
54307;SDS011;40208;39.778;2.710;2023-05-10T07:23:50;6.25;;;2.60;;
54307;SDS011;40208;39.778;2.710;2023-05-10T07:26:39;5.43;;;2.08;;
54307;SDS011;40208;39.778;2.710;2023-05-10T07:29:26;6.60;;;1.38;;
54307;SDS011;40208;39.778;2.710;2023-05-10T07:32:13;3.70;;;1.20;;
54307;SDS011;40208;39.778;2.710;2023-05-10T07:35:01;2.15;;;0.80;;
54307;SDS011;40208;39.778;2.710;2023-05-10T07:37:48;2.65;;;1.00;;
54307;SDS011;40208;39.778;2.710;2023-05-10T07:40:35;4.50;;;1.17;;
54307;SDS011;40208;39.778;2.710;2023-05-10T07:43:22;8.75;;;1.55;;
54307;SDS011;40208;39.778;2.710;2023-05-10T07:46:07;17.75;;;2.00;;
54307;SDS011;40208;39.778;2.710;2023-05-10T07:48:55;9.32;;;2.55;;
54307;SDS011;40208;39.778;2.710;2023-05-10T07:51:42;16.48;;;2.67;;
54307;SDS011;40208;39.778;2.710;2023-05-10T07:54:29;11.40;;;1.85;;
54307;SDS011;40208;39.778;2.710;2023-05-10T07:57:14;12.77;;;2.20;;
54307;SDS011;40208;39.778;2.710;2023-05-10T08:00:02;12.90;;;2.15;;
54307;SDS011;40208;39.778;2.710;2023-05-10T08:02:47;12.77;;;2.60;;
54307;SDS011;40208;39.778;2.710;2023-05-10T08:05:37;17.20;;;2.55;;
54307;SDS011;40208;39.778;2.710;2023-05-10T08:08:22;24.25;;;2.75;;
54307;SDS011;40208;39.778;2.710;2023-05-10T08:11:10;13.05;;;2.55;;
54307;SDS011;40208;39.778;2.710;2023-05-10T08:13:57;11.15;;;2.65;;
54307;SDS011;40208;39.778;2.710;2023-05-10T08:16:42;11.02;;;2.40;;
54307;SDS011;40208;39.778;2.710;2023-05-10T08:19:27;8.50;;;1.83;;
54307;SDS011;40208;39.778;2.710;2023-05-10T08:22:39;13.45;;;2.45;;
54307;SDS011;40208;39.778;2.710;2023-05-10T08:25:26;12.25;;;2.25;;
54307;SDS011;40208;39.778;2.710;2023-05-10T08:28:23;9.15;;;2.08;;
54307;SDS011;40208;39.778;2.710;2023-05-10T08:31:08;9.40;;;2.35;;
54307;SDS011;40208;39.778;2.710;2023-05-10T08:33:55;11.02;;;1.80;;
54307;SDS011;40208;39.778;2.710;2023-05-10T08:36:40;14.45;;;2.70;;
54307;SDS011;40208;39.778;2.710;2023-05-10T08:39:27;14.38;;;3.40;;
54307;SDS011;40208;39.778;2.710;2023-05-10T08:42:16;14.57;;;2.63;;
54307;SDS011;40208;39.778;2.710;2023-05-10T08:45:09;8.75;;;2.38;;
54307;SDS011;40208;39.778;2.710;2023-05-10T08:47:55;17.77;;;3.25;;
54307;SDS011;40208;39.778;2.710;2023-05-10T08:53:58;12.50;;;2.30;;
54307;SDS011;40208;39.778;2.710;2023-05-10T08:56:54;11.93;;;2.60;;
54307;SDS011;40208;39.778;2.710;2023-05-10T08:59:42;15.75;;;2.92;;
54307;SDS011;40208;39.778;2.710;2023-05-10T09:02:27;12.95;;;2.22;;
54307;SDS011;40208;39.778;2.710;2023-05-10T09:05:14;15.90;;;2.78;;
54307;SDS011;40208;39.778;2.710;2023-05-10T09:08:05;16.92;;;2.85;;
54307;SDS011;40208;39.778;2.710;2023-05-10T09:14:33;18.33;;;2.70;;
54307;SDS011;40208;39.778;2.710;2023-05-10T09:17:22;18.83;;;2.75;;
54307;SDS011;40208;39.778;2.710;2023-05-10T09:20:18;17.67;;;2.85;;
54307;SDS011;40208;39.778;2.710;2023-05-10T09:23:05;22.05;;;3.03;;
54307;SDS011;40208;39.778;2.710;2023-05-10T09:26:06;21.92;;;3.35;;
54307;SDS011;40208;39.778;2.710;2023-05-10T09:31:50;16.30;;;2.92;;
54307;SDS011;40208;39.778;2.710;2023-05-10T09:34:36;12.43;;;2.95;;
54307;SDS011;40208;39.778;2.710;2023-05-10T09:37:29;14.75;;;3.17;;
54307;SDS011;40208;39.778;2.710;2023-05-10T09:40:21;15.05;;;2.90;;
54307;SDS011;40208;39.778;2.710;2023-05-10T09:43:10;16.08;;;2.85;;
54307;SDS011;40208;39.778;2.710;2023-05-10T09:45:57;18.80;;;3.45;;
54307;SDS011;40208;39.778;2.710;2023-05-10T09:48:44;11.82;;;2.47;;
54307;SDS011;40208;39.778;2.710;2023-05-10T09:51:30;11.70;;;2.45;;
54307;SDS011;40208;39.778;2.710;2023-05-10T09:54:16;17.05;;;2.83;;
54307;SDS011;40208;39.778;2.710;2023-05-10T09:57:04;15.45;;;2.28;;
54307;SDS011;40208;39.778;2.710;2023-05-10T09:59:53;16.13;;;2.35;;
54307;SDS011;40208;39.778;2.710;2023-05-10T10:03:03;17.95;;;3.85;;
54307;SDS011;40208;39.778;2.710;2023-05-10T10:05:48;11.50;;;2.50;;
54307;SDS011;40208;39.778;2.710;2023-05-10T10:08:33;13.02;;;2.60;;
54307;SDS011;40208;39.778;2.710;2023-05-10T10:11:21;17.05;;;3.05;;
54307;SDS011;40208;39.778;2.710;2023-05-10T10:14:09;16.77;;;2.95;;
54307;SDS011;40208;39.778;2.710;2023-05-10T10:17:00;16.50;;;3.20;;
54307;SDS011;40208;39.778;2.710;2023-05-10T10:20:11;17.52;;;2.50;;
54307;SDS011;40208;39.778;2.710;2023-05-10T10:23:01;16.05;;;2.42;;
54307;SDS011;40208;39.778;2.710;2023-05-10T10:25:46;31.60;;;2.90;;
54307;SDS011;40208;39.778;2.710;2023-05-10T10:28:40;13.75;;;2.95;;
54307;SDS011;40208;39.778;2.710;2023-05-10T10:31:45;10.48;;;1.92;;
54307;SDS011;40208;39.778;2.710;2023-05-10T10:37:59;12.23;;;2.25;;
54307;SDS011;40208;39.778;2.710;2023-05-10T10:43:33;15.52;;;2.55;;
54307;SDS011;40208;39.778;2.710;2023-05-10T10:46:20;11.85;;;2.05;;
54307;SDS011;40208;39.778;2.710;2023-05-10T10:49:10;19.55;;;2.00;;
54307;SDS011;40208;39.778;2.710;2023-05-10T10:55:18;14.75;;;2.00;;
54307;SDS011;40208;39.778;2.710;2023-05-10T10:58:12;11.30;;;2.40;;
54307;SDS011;40208;39.778;2.710;2023-05-10T11:01:22;12.80;;;2.40;;
54307;SDS011;40208;39.778;2.710;2023-05-10T11:07:17;19.10;;;2.72;;
54307;SDS011;40208;39.778;2.710;2023-05-10T11:10:11;9.10;;;1.98;;
54307;SDS011;40208;39.778;2.710;2023-05-10T11:13:04;8.20;;;2.10;;
54307;SDS011;40208;39.778;2.710;2023-05-10T11:15:50;9.40;;;2.53;;
54307;SDS011;40208;39.778;2.710;2023-05-10T11:18:40;8.13;;;2.28;;
54307;SDS011;40208;39.778;2.710;2023-05-10T11:21:32;18.40;;;2.65;;
54307;SDS011;40208;39.778;2.710;2023-05-10T11:24:22;10.32;;;2.40;;
54307;SDS011;40208;39.778;2.710;2023-05-10T11:27:09;15.35;;;3.05;;
54307;SDS011;40208;39.778;2.710;2023-05-10T11:29:58;9.70;;;2.35;;
54307;SDS011;40208;39.778;2.710;2023-05-10T11:32:43;11.98;;;2.33;;
54307;SDS011;40208;39.778;2.710;2023-05-10T11:35:38;10.55;;;2.30;;
54307;SDS011;40208;39.778;2.710;2023-05-10T11:38:28;12.57;;;2.20;;
54307;SDS011;40208;39.778;2.710;2023-05-10T11:41:15;10.50;;;2.08;;
54307;SDS011;40208;39.778;2.710;2023-05-10T11:44:06;10.23;;;1.73;;
54307;SDS011;40208;39.778;2.710;2023-05-10T11:46:53;10.80;;;1.98;;
54307;SDS011;40208;39.778;2.710;2023-05-10T11:49:43;11.77;;;2.00;;
54307;SDS011;40208;39.778;2.710;2023-05-10T11:52:38;10.05;;;2.00;;
54307;SDS011;40208;39.778;2.710;2023-05-10T11:58:59;7.55;;;1.70;;
54307;SDS011;40208;39.778;2.710;2023-05-10T12:01:48;9.18;;;1.38;;
54307;SDS011;40208;39.778;2.710;2023-05-10T12:04:58;5.70;;;1.52;;
54307;SDS011;40208;39.778;2.710;2023-05-10T12:07:53;3.75;;;0.95;;
54307;SDS011;40208;39.778;2.710;2023-05-10T12:11:06;4.63;;;1.40;;
54307;SDS011;40208;39.778;2.710;2023-05-10T12:13:53;5.78;;;1.30;;
54307;SDS011;40208;39.778;2.710;2023-05-10T12:16:43;4.55;;;1.13;;
54307;SDS011;40208;39.778;2.710;2023-05-10T12:19:37;6.85;;;1.70;;
54307;SDS011;40208;39.778;2.710;2023-05-10T12:25:41;5.28;;;1.25;;
54307;SDS011;40208;39.778;2.710;2023-05-10T12:28:29;8.48;;;1.80;;
54307;SDS011;40208;39.778;2.710;2023-05-10T12:31:15;12.30;;;2.60;;
54307;SDS011;40208;39.778;2.710;2023-05-10T12:34:33;9.10;;;1.65;;
54307;SDS011;40208;39.778;2.710;2023-05-10T12:37:29;7.88;;;1.90;;
54307;SDS011;40208;39.778;2.710;2023-05-10T12:40:13;8.65;;;1.60;;
54307;SDS011;40208;39.778;2.710;2023-05-10T12:42:58;7.88;;;1.27;;
54307;SDS011;40208;39.778;2.710;2023-05-10T12:49:25;7.57;;;1.90;;
54307;SDS011;40208;39.778;2.710;2023-05-10T12:52:18;10.30;;;1.20;;
54307;SDS011;40208;39.778;2.710;2023-05-10T12:55:10;5.60;;;1.38;;
54307;SDS011;40208;39.778;2.710;2023-05-10T12:57:55;5.95;;;1.48;;
54307;SDS011;40208;39.778;2.710;2023-05-10T13:00:40;5.38;;;1.45;;
54307;SDS011;40208;39.778;2.710;2023-05-10T13:03:25;11.75;;;1.40;;
54307;SDS011;40208;39.778;2.710;2023-05-10T13:06:13;5.72;;;1.23;;
54307;SDS011;40208;39.778;2.710;2023-05-10T13:09:07;6.53;;;1.40;;
54307;SDS011;40208;39.778;2.710;2023-05-10T13:12:02;4.72;;;1.15;;
54307;SDS011;40208;39.778;2.710;2023-05-10T13:14:49;5.88;;;1.30;;
54307;SDS011;40208;39.778;2.710;2023-05-10T13:27:30;10.80;;;2.05;;
54307;SDS011;40208;39.778;2.710;2023-05-10T13:30:15;8.50;;;1.60;;
54307;SDS011;40208;39.778;2.710;2023-05-10T13:33:04;9.98;;;1.42;;
54307;SDS011;40208;39.778;2.710;2023-05-10T13:35:54;5.70;;;2.13;;
54307;SDS011;40208;39.778;2.710;2023-05-10T13:38:41;11.30;;;1.77;;
54307;SDS011;40208;39.778;2.710;2023-05-10T13:41:30;6.07;;;1.27;;
54307;SDS011;40208;39.778;2.710;2023-05-10T13:47:41;6.75;;;1.27;;
54307;SDS011;40208;39.778;2.710;2023-05-10T13:50:32;6.72;;;1.77;;
54307;SDS011;40208;39.778;2.710;2023-05-10T13:56:33;7.25;;;1.30;;
54307;SDS011;40208;39.778;2.710;2023-05-10T13:59:23;10.38;;;1.27;;
54307;SDS011;40208;39.778;2.710;2023-05-10T14:02:08;5.28;;;1.42;;
54307;SDS011;40208;39.778;2.710;2023-05-10T14:04:57;6.35;;;1.70;;
54307;SDS011;40208;39.778;2.710;2023-05-10T14:07:41;5.60;;;1.48;;
54307;SDS011;40208;39.778;2.710;2023-05-10T14:10:28;11.98;;;2.03;;
54307;SDS011;40208;39.778;2.710;2023-05-10T14:13:22;6.85;;;1.55;;
54307;SDS011;40208;39.778;2.710;2023-05-10T14:16:17;7.95;;;2.35;;
54307;SDS011;40208;39.778;2.710;2023-05-10T14:19:04;5.72;;;1.23;;
54307;SDS011;40208;39.778;2.710;2023-05-10T14:22:00;4.35;;;1.52;;
54307;SDS011;40208;39.778;2.710;2023-05-10T14:24:53;11.15;;;1.42;;
54307;SDS011;40208;39.778;2.710;2023-05-10T14:28:11;12.65;;;1.23;;
54307;SDS011;40208;39.778;2.710;2023-05-10T14:34:16;11.02;;;1.67;;
54307;SDS011;40208;39.778;2.710;2023-05-10T14:40:35;6.03;;;1.55;;
54307;SDS011;40208;39.778;2.710;2023-05-10T14:50:03;8.60;;;1.30;;
54307;SDS011;40208;39.778;2.710;2023-05-10T14:52:51;3.40;;;0.82;;
54307;SDS011;40208;39.778;2.710;2023-05-10T14:55:42;8.93;;;1.70;;
54307;SDS011;40208;39.778;2.710;2023-05-10T14:58:33;6.90;;;2.08;;
54307;SDS011;40208;39.778;2.710;2023-05-10T15:01:29;6.70;;;1.67;;
54307;SDS011;40208;39.778;2.710;2023-05-10T15:04:21;7.25;;;1.70;;
54307;SDS011;40208;39.778;2.710;2023-05-10T15:07:16;8.77;;;1.83;;
54307;SDS011;40208;39.778;2.710;2023-05-10T15:16:16;9.88;;;1.30;;
54307;SDS011;40208;39.778;2.710;2023-05-10T15:28:53;8.55;;;1.45;;
54307;SDS011;40208;39.778;2.710;2023-05-10T15:34:56;9.05;;;1.50;;
54307;SDS011;40208;39.778;2.710;2023-05-10T15:41:22;6.07;;;1.42;;
54307;SDS011;40208;39.778;2.710;2023-05-10T15:44:11;6.95;;;1.38;;
54307;SDS011;40208;39.778;2.710;2023-05-10T15:47:07;5.80;;;1.40;;
54307;SDS011;40208;39.778;2.710;2023-05-10T15:50:05;8.87;;;1.57;;
54307;SDS011;40208;39.778;2.710;2023-05-10T15:53:20;6.32;;;1.20;;
54307;SDS011;40208;39.778;2.710;2023-05-10T15:56:14;8.63;;;1.38;;
54307;SDS011;40208;39.778;2.710;2023-05-10T15:59:08;4.25;;;1.02;;
54307;SDS011;40208;39.778;2.710;2023-05-10T16:01:55;8.90;;;1.80;;
54307;SDS011;40208;39.778;2.710;2023-05-10T16:04:52;4.45;;;0.90;;
54307;SDS011;40208;39.778;2.710;2023-05-10T16:07:55;5.15;;;1.58;;
54307;SDS011;40208;39.778;2.710;2023-05-10T16:10:44;7.45;;;1.40;;
54307;SDS011;40208;39.778;2.710;2023-05-10T16:13:31;4.38;;;1.35;;
54307;SDS011;40208;39.778;2.710;2023-05-10T16:16:17;6.35;;;1.30;;
54307;SDS011;40208;39.778;2.710;2023-05-10T16:19:14;4.90;;;1.30;;
54307;SDS011;40208;39.778;2.710;2023-05-10T16:22:12;5.45;;;1.20;;
54307;SDS011;40208;39.778;2.710;2023-05-10T16:32:36;5.68;;;1.17;;
54307;SDS011;40208;39.778;2.710;2023-05-10T16:35:27;6.22;;;1.20;;
54307;SDS011;40208;39.778;2.710;2023-05-10T16:38:15;14.82;;;1.92;;
54307;SDS011;40208;39.778;2.710;2023-05-10T16:41:09;14.65;;;4.15;;
54307;SDS011;40208;39.778;2.710;2023-05-10T16:43:56;32.58;;;12.00;;
54307;SDS011;40208;39.778;2.710;2023-05-10T16:46:49;99.30;;;44.00;;
54307;SDS011;40208;39.778;2.710;2023-05-10T16:53:19;369.95;;;187.45;;
54307;SDS011;40208;39.778;2.710;2023-05-10T16:56:04;476.92;;;271.33;;
54307;SDS011;40208;39.778;2.710;2023-05-10T16:58:51;417.90;;;223.70;;
54307;SDS011;40208;39.778;2.710;2023-05-10T17:04:55;482.95;;;266.45;;
54307;SDS011;40208;39.778;2.710;2023-05-10T17:07:42;499.23;;;274.48;;
54307;SDS011;40208;39.778;2.710;2023-05-10T17:10:31;487.13;;;258.17;;
54307;SDS011;40208;39.778;2.710;2023-05-10T17:13:30;518.65;;;290.00;;
54307;SDS011;40208;39.778;2.710;2023-05-10T17:16:25;493.97;;;257.83;;
54307;SDS011;40208;39.778;2.710;2023-05-10T17:19:15;302.23;;;144.45;;
54307;SDS011;40208;39.778;2.710;2023-05-10T17:22:00;424.92;;;216.70;;
54307;SDS011;40208;39.778;2.710;2023-05-10T17:25:10;388.98;;;189.80;;
54307;SDS011;40208;39.778;2.710;2023-05-10T17:28:07;365.83;;;173.10;;
54307;SDS011;40208;39.778;2.710;2023-05-10T17:30:58;315.08;;;144.27;;
54307;SDS011;40208;39.778;2.710;2023-05-10T17:34:08;9.13;;;4.22;;
54307;SDS011;40208;39.778;2.710;2023-05-10T17:36:59;15.52;;;6.25;;
54307;SDS011;40208;39.778;2.710;2023-05-10T17:39:48;77.60;;;35.80;;
54307;SDS011;40208;39.778;2.710;2023-05-10T17:43:06;14.13;;;2.92;;
54307;SDS011;40208;39.778;2.710;2023-05-10T17:45:55;82.70;;;33.45;;
54307;SDS011;40208;39.778;2.710;2023-05-10T17:49:05;8.90;;;2.22;;
54307;SDS011;40208;39.778;2.710;2023-05-10T17:51:50;8.63;;;1.08;;
54307;SDS011;40208;39.778;2.710;2023-05-10T17:54:35;3.75;;;1.08;;
54307;SDS011;40208;39.778;2.710;2023-05-10T17:57:26;5.82;;;1.17;;
54307;SDS011;40208;39.778;2.710;2023-05-10T18:03:44;11.32;;;1.17;;
54307;SDS011;40208;39.778;2.710;2023-05-10T18:06:39;3.15;;;0.90;;
54307;SDS011;40208;39.778;2.710;2023-05-10T18:09:24;9.75;;;1.17;;
54307;SDS011;40208;39.778;2.710;2023-05-10T18:12:10;12.50;;;1.45;;
54307;SDS011;40208;39.778;2.710;2023-05-10T18:15:03;7.00;;;1.55;;
54307;SDS011;40208;39.778;2.710;2023-05-10T18:17:50;3.47;;;1.00;;
54307;SDS011;40208;39.778;2.710;2023-05-10T18:20:42;7.47;;;1.65;;
54307;SDS011;40208;39.778;2.710;2023-05-10T18:23:34;8.38;;;1.45;;
54307;SDS011;40208;39.778;2.710;2023-05-10T18:32:53;4.05;;;1.10;;
54307;SDS011;40208;39.778;2.710;2023-05-10T18:38:25;10.60;;;2.03;;
54307;SDS011;40208;39.778;2.710;2023-05-10T18:41:14;16.15;;;3.90;;
54307;SDS011;40208;39.778;2.710;2023-05-10T18:47:16;25.30;;;3.28;;
54307;SDS011;40208;39.778;2.710;2023-05-10T18:50:07;13.35;;;3.00;;
54307;SDS011;40208;39.778;2.710;2023-05-10T18:52:58;26.63;;;4.00;;
54307;SDS011;40208;39.778;2.710;2023-05-10T18:56:14;22.33;;;4.00;;
54307;SDS011;40208;39.778;2.710;2023-05-10T18:59:01;15.63;;;3.08;;
54307;SDS011;40208;39.778;2.710;2023-05-10T19:07:53;13.38;;;2.78;;
54307;SDS011;40208;39.778;2.710;2023-05-10T19:14:06;17.30;;;3.33;;
54307;SDS011;40208;39.778;2.710;2023-05-10T19:16:56;20.50;;;3.25;;
54307;SDS011;40208;39.778;2.710;2023-05-10T19:20:10;17.23;;;3.10;;
54307;SDS011;40208;39.778;2.710;2023-05-10T19:23:23;9.95;;;2.22;;
54307;SDS011;40208;39.778;2.710;2023-05-10T19:26:16;13.02;;;2.78;;